Tiempo atmosférico en la estación meteorológica de Grazalema, Cádiz (900 m.)



Fecha
DESCASC
Temp. máxima en grados centígrados (hora)
DESCASC
Temp. mínima en grados centígrados (hora)
DESCASC
Temp. media en grados centígrados
DESCASC
Racha de viento máxima en m/sg (hora)
DESCASC
Velocidad máxima media en intervalos de 10 minutos(hora)
DESCASC
Precipitaciones diarias en mm
DESCASC
Precipitaciones de 00:00 a 06:00 en mm
DESCASC
Precipitaciones de 06:00 a 12:00 en mm
DESCASC
Precipitaciones de 12:00 a 18:00 en mm
DESCASC
Precipitaciones de 18:00 a 24:00 en mm
DESCASC
10-07-2020 30.2 (13:40) 15.7 (07:00) 23 5.83 (14:50) 2.78 (00:30) 0 0 0 0 0
09-07-2020 28 (15:10) 14.7 (07:30) 21.3 5.83 (14:00) 2.5 (05:50) 0 0 0 0 0
08-07-2020 32.3 (11:10) 21.1 (23:59) 26.7 8.33 (10:10) 2.78 (08:20) 0 0 0 0 0
07-07-2020 34.2 (15:10) 19.4 (07:00) 26.8 5.56 (16:20) 2.5 (03:00) 0 0 0 0 0
06-07-2020 34.3 (15:00) 16.6 (00:00) 25.4 7.78 (14:10) 3.33 (21:50) 0 0 0 0 0
05-07-2020 30.6 (16:30) 17.5 (00:00) 24.1 11.67 (10:30) 4.17 (10:30) 0 0 0 0 0
04-07-2020 30.5 (15:40) 15.3 (00:00) 22.9 5.83 (13:40) 2.5 (00:50) 0 0 0 0 0
03-07-2020 28.3 (15:10) 16.8 (04:40) 22.5 6.39 (01:30) 2.5 (16:10) 0 0 0 0 0
02-07-2020 28.2 (14:00) 16.2 (00:00) 22.2 6.39 (16:30) 2.78 (04:40) 0 0 0 0 0
01-07-2020 30.2 (15:20) 16 (00:00) 23.1 6.11 (17:30) 2.78 (21:00) 0 0 0 0 0
30-06-2020 30.4 (16:10) 16.9 (00:00) 23.6 5.83 (01:30) 2.78 (05:00) 0 0 0 0 0
29-06-2020 32.5 (15:30) 16.6 (00:00) 24.6 5.28 (16:40) 2.22 (20:50) 0 0 0 0 0
28-06-2020 30.6 (16:50) 15.4 (00:00) 23 5.28 (13:20) 2.22 (00:50) 0 0 0 0 0
27-06-2020 27.3 (15:30) 12.3 (00:00) 19.8 5 (11:40) 2.5 (01:40) 0 0 0 0 0
26-06-2020 24.6 (15:30) 12.8 (00:00) 18.7 6.67 (15:30) 2.5 (22:10) 0 0 0 0 0
25-06-2020 26.7 (16:10) 16.1 (00:00) 21.4 11.11 (01:30) 4.72 (01:20) 0 0 0 0 0
24-06-2020 29.6 (17:10) 20.2 (00:00) 24.9 8.61 (15:20) 3.61 (00:20) 0 0 0 0 0
23-06-2020 29.3 (15:10) 23.8 (00:00) 26.5 15.28 (07:30) 6.39 (07:40) 0 0 0 0 0
22-06-2020 30 (12:50) 15.3 (00:00) 22.7 8.89 (15:10) 3.89 (16:50) 0 0 0 0 0
21-06-2020 31.3 (16:30) 14.6 (00:00) 22.9 5.28 (12:20) 2.78 (22:50) 0 0 0 0 0
20-06-2020 28 (16:10) 12.2 (00:00) 20.1 5 (17:20) 2.5 (06:10) 0 0 0 0 0
19-06-2020 23.9 (17:00) 12.3 (00:00) 18.1 6.67 (13:10) 3.33 (02:30) 0 0 0 0 0
18-06-2020 23.8 (16:40) 10.9 (00:00) 17.3 7.5 (18:50) 2.78 (21:50) 0 0 0 0 0
17-06-2020 23 (17:00) 11.8 (00:00) 17.4 5.83 (12:30) 2.22 (14:20) 0 0 0 0 0
16-06-2020 21.2 (15:40) 12.3 (00:00) 16.8 8.61 (14:50) 3.33 (02:50) 0 0 0 0 0
15-06-2020 22.6 (16:00) 11.1 (00:00) 16.9 6.11 (20:40) 3.33 (02:50) 0 0 0 0 0

Gráficas

Temp. máximas Temp. mínimas Temp. medias Precipitaciones Rachas de viento máximas Velocidades máximas media en intervalos de 10 minutos

Datos horarios

Fecha y hora oficial Temperatura (ºC) Velocidad del viento (km/h) Dirección del viento Racha (km/h) Dirección de racha Precipitación (mm) Presión (hPa) Tendencia (hPa) Humedad (%)
2020-07-14 23:00:00 20 6 Oeste 12 Noroeste 0 912.1 0.4 65
2020-07-14 22:00:00 21.6 6 Oeste 10 Noroeste 0 911.7 0.3 62
2020-07-14 21:00:00 23.7 7 Oeste 13 Oeste 0 911.6 -0.3 57
2020-07-14 20:00:00 25.5 7 Oeste 14 Oeste 0 911.7 -1 51
2020-07-14 19:00:00 27.9 6 Oeste 16 Oeste 0 911.4 -1.8 45
2020-07-14 18:00:00 28.5 6 Oeste 22 Sudoeste 0 911.9 -1.5 44
2020-07-14 17:00:00 29 8 Oeste 21 Sudoeste 0 912.7 -1.2 43
2020-07-14 16:00:00 27.8 7 Oeste 19 Sudoeste 0 913.2 -0.9 44
2020-07-14 15:00:00 30.3 5 Oeste 19 Oeste 0 913.4 -0.8 39
2020-07-14 14:00:00 30.6 5 Nordeste 17 Nordeste 0 913.9 -0.2 34
2020-07-14 13:00:00 29.9 4 Nordeste 15 Este 0 914.1 -0.3 34
2020-07-14 12:00:00 28.9 6 Este 18 Este 0 914.2 0 35
2020-07-14 11:00:00 27.6 4 Nordeste 12 Nordeste 0 914.1 -0.1 36
2020-07-14 10:00:00 24.3 3 Este 11 Este 0 914.4 0 46
2020-07-14 09:00:00 21.6 0 Calma 10 Oeste 0 914.2 -0.4 62
2020-07-14 08:00:00 18.2 7 Oeste 12 Oeste 0 914.2 -0.3 73
2020-07-14 07:00:00 18 6 Oeste 11 Oeste 0 914.4 -0.5 74
2020-07-14 06:00:00 18 6 Oeste 12 Oeste 0 914.6 -- 73
2020-07-14 05:00:00 17.8 6 Oeste 10 Oeste 0 914.5 -- 74
2020-07-14 04:00:00 19.2 7 Oeste 10 Oeste 0 914.9 -- 70
2020-07-14 03:00:00 19.8 6 Oeste 10 Oeste 0 915.2 -- 68
2020-07-14 02:00:00 20.6 5 Oeste 12 Noroeste 0 915.6 -- 66
2020-07-14 01:00:00 20.3 5 Oeste 12 Noroeste 0 915.8 -- 66
2020-07-14 00:00:00 20.4 7 Oeste 11 Noroeste 0 915.9 -- 67
2020-07-13 23:00:00 20.6 7 Oeste 13 Noroeste 0 915.6 -- 68
2020-07-13 22:00:00 22.7 8 Oeste 13 Oeste 0 915.3 0 60
2020-07-13 21:00:00 24.1 7 Oeste 16 Sudoeste 0 915.2 -0.2 53
2020-07-13 20:00:00 26.4 6 Oeste 20 Oeste 0 915.1 -0.8 49
2020-07-13 19:00:00 28 6 Oeste 18 Oeste 0 915.3 -1.1 44
2020-07-13 18:00:00 28.8 6 Oeste 20 Noroeste 0 915.4 -1.3 44
2020-07-13 17:00:00 29.4 7 Oeste 19 Noroeste 0 915.9 -1.1 43
2020-07-13 16:00:00 30.3 6 Oeste 18 Noroeste 0 916.4 -0.7 42
2020-07-13 15:00:00 29.5 6 Noroeste 19 Este 0 916.7 -0.4 42
2020-07-13 14:00:00 29.7 5 Este 17 Nordeste 0 917 0.2 38
2020-07-13 13:00:00 28.7 7 Este 19 Este 0 917.1 0.6 39
2020-07-13 12:00:00 27.9 6 Este 16 Este 0 917.1 0.8 39
2020-07-13 11:00:00 26.5 5 Este 12 Este 0 916.8 0.9 42
2020-07-13 10:00:00 23.6 2 Nordeste 7 Este 0 916.5 0.8 49
2020-07-13 09:00:00 20.8 0 Calma 10 Oeste 0 916.3 0.9 63
2020-07-13 08:00:00 17.3 6 Oeste 10 Oeste 0 915.9 0.5 75
2020-07-13 07:00:00 16.9 7 Oeste 12 Oeste 0 915.7 -- 73
2020-07-13 06:00:00 17.2 8 Oeste 13 Oeste 0 915.4 -0.5 71
2020-07-13 05:00:00 18.4 7 Oeste 18 Sudeste 0 915.4 -0.6 66
2020-07-13 04:00:00 20.9 3 Sudeste 17 Sudeste 0 915.7 -0.5 57
2020-07-13 03:00:00 18.7 5 Noroeste 11 Oeste 0 915.9 -0.2 72
2020-07-13 02:00:00 20.2 6 Oeste 13 Sur 0 916 0.7 73
2020-07-13 01:00:00 19.4 7 Oeste 10 Oeste 0 916.2 1.6 80
2020-07-13 00:00:00 20 6 Oeste 11 Oeste 0 916.1 1.7 77
2020-07-12 23:00:00 21.2 8 Oeste 12 Oeste 0 915.3 1.4 73
2020-07-12 22:00:00 23.3 6 Oeste 15 Oeste 0 914.6 0.7 68
2020-07-12 21:00:00 26.1 4 Sudoeste 14 Sudoeste 0 914.4 0.1 55
2020-07-12 20:00:00 27.3 5 Oeste 14 Sudoeste 0 913.9 -0.6 54
2020-07-12 19:00:00 28.4 6 Oeste 15 Oeste 0 913.9 -0.9 50
2020-07-12 18:00:00 28.7 8 Oeste 22 Sudoeste 0 914.3 -0.7 48
2020-07-12 17:00:00 30.4 9 Oeste 20 Oeste 0 914.5 -0.4 42
2020-07-12 16:00:00 31.3 5 Noroeste 18 Nordeste 0 914.8 -0.3 39
2020-07-12 15:00:00 31.1 3 Oeste 18 Noroeste 0 915 -- 38
2020-07-12 14:00:00 29.4 10 Noroeste 20 Nordeste 0 914.9 -0.1 38
2020-07-12 13:00:00 28.3 5 Nordeste 26 Este 0 915.1 -- 38
2020-07-12 12:00:00 27 9 Nordeste 28 Nordeste 0 915.1 -- 38
2020-07-12 11:00:00 26.4 4 Este 21 Este 0 915 -- 40
2020-07-12 10:00:00 25 5 Este 31 Sur 0 914.3 1.1 36
2020-07-12 09:00:00 23.7 3 Sur 26 Noroeste 0 914 -- 39
2020-07-12 08:00:00 22.8 0 Calma 37 Sur 0 913.6 -- 38
2020-07-12 07:00:00 23.9 0 Calma 30 Sudoeste 0 913.2 -- 36
2020-07-12 06:00:00 24.4 4 Este 36 Sudeste 0 912.8 -- 33
2020-07-12 05:00:00 24.2 4 Sudeste 37 Sudeste 0 912.6 -- 33
2020-07-12 04:00:00 24.2 6 Este 31 Sur 0 913.7 -- 33
2020-07-12 03:00:00 24.6 2 Sudeste 32 Nordeste 0 913.9 -- 33
2020-07-12 02:00:00 25.6 12 Este 36 Sur 0 913.2 -- 30
2020-07-12 01:00:00 26.3 7 Sudeste 38 Este 0 913 -- 27
2020-07-12 00:00:00 26.8 9 Sudeste 28 Sur 0 913 -- 27
2020-07-11 23:00:00 25.5 7 Sur 37 Sudeste 0 913.2 -- 29
2020-07-11 22:00:00 25.2 10 Este 33 Sur 0 912.6 -- 33
2020-07-11 21:00:00 26 9 Este 30 Este 0 913.1 -- 37
2020-07-11 20:00:00 26.9 5 Nordeste 21 Este 0 912.6 -- 36
2020-07-11 19:00:00 27.7 4 Nordeste 17 Sudoeste 0 912.9 -0.8 33
2020-07-11 18:00:00 28.5 5 Nordeste 26 Nordeste 0 913.2 -- 34
2020-07-11 17:00:00 29.6 8 Este 25 Este 0 913.7 -- 31
2020-07-11 16:00:00 29.7 8 Este 25 Sudeste 0 913.7 -- 34
2020-07-11 15:00:00 31.1 4 Nordeste 22 Este 0 913.5 -- 29
2020-07-11 14:00:00 30.2 5 Nordeste 26 Este 0 913.7 -- 29
2020-07-11 13:00:00 29.5 5 Nordeste 23 Nordeste 0 913.7 -- 30
2020-07-11 12:00:00 28.8 8 Nordeste 41 Este 0 913.5 -- 30
2020-07-11 11:00:00 28.4 7 Nordeste 22 Nordeste 0 913.2 -- 27
2020-07-11 10:00:00 26.2 6 Nordeste 22 Sur 0 912.9 -- 28
2020-07-11 09:00:00 24.9 5 Este 17 Este 0 912.7 -- 28
2020-07-11 08:00:00 21.8 5 Este 13 Sudeste 0 912.6 -- 28
2020-07-11 07:00:00 19.2 6 Oeste 14 Sudeste 0 912.4 -- 32
2020-07-11 06:00:00 23.6 8 Este 20 Sudeste 0 912.3 -- 16
2020-07-11 05:00:00 19.5 5 Oeste 13 Sudoeste 0 912.2 -- 46
2020-07-11 04:00:00 18.1 6 Oeste 12 Noroeste 0 912.5 -- 67
2020-07-11 03:00:00 18.1 7 Oeste 11 Oeste 0 912.9 -- 73
2020-07-11 02:00:00 17.9 8 Oeste 10 Oeste 0 913 0 71
2020-07-11 01:00:00 18.7 7 Oeste 11 Oeste 0 913.2 -- 69
2020-07-11 00:00:00 19.4 7 Oeste 11 Noroeste 0 913.1 -- 67
2020-07-10 23:00:00 21.5 8 Oeste 14 Sudoeste 0 913 -- 61
2020-07-10 22:00:00 22.8 7 Oeste 14 Oeste 0 912.6 -- 55
2020-07-10 21:00:00 24.8 5 Oeste 11 Noroeste 0 912.5 -- 50
2020-07-10 20:00:00 27.1 5 Oeste 15 Oeste 0 912.4 -- 41
2020-07-10 19:00:00 28.2 5 Oeste 15 Oeste 0 912.4 -- 39
2020-07-10 18:00:00 28.7 5 Oeste 19 Oeste 0 912.7 -- 41
2020-07-10 17:00:00 29 6 Oeste 18 Oeste 0 912.9 -- 40
2020-07-10 16:00:00 29.5 6 Oeste 17 Oeste 0 913.2 -- 39
2020-07-10 15:00:00 29.2 8 Oeste 21 Oeste 0 913.5 -- 40
2020-07-10 14:00:00 30 5 Este 15 Nordeste 0 913.7 0 27
2020-07-10 13:00:00 29.4 6 Este 18 Este 0 913.7 -- 27
2020-07-10 12:00:00 29 3 Este 14 Nordeste 0 913.9 -- 26
2020-07-10 11:00:00 27 4 Nordeste 11 Este 0 913.7 0.4 37
2020-07-10 10:00:00 23.3 3 Nordeste 8 Este 0 913.8 -- 42
2020-07-10 09:00:00 20.4 3 Noroeste 11 Noroeste 0 913.5 -- 58
2020-07-10 08:00:00 16.8 6 Oeste 12 Oeste 0 913.3 -- 65
2020-07-10 07:00:00 15.8 8 Oeste 14 Oeste 0 913.3 -- 61
2020-07-10 06:00:00 15.9 8 Oeste 10 Oeste 0 913.4 -- 54
2020-07-10 05:00:00 16.7 8 Oeste 14 Oeste 0 913.5 -- 47
2020-07-10 04:00:00 17 8 Oeste 14 Oeste 0 914 -- 52
2020-07-10 03:00:00 17.1 7 Oeste 12 Oeste 0 914.2 -- 57
2020-07-10 02:00:00 18.2 9 Oeste 14 Noroeste 0 914.5 -- 53
2020-07-10 01:00:00 18.3 6 Oeste 14 Oeste 0 914.5 -- 54
2020-07-10 00:00:00 18.1 8 Oeste 13 Oeste 0 914.5 -- 60
2020-07-09 23:00:00 17.6 7 Oeste 12 Noroeste 0 914 -- 61
2020-07-09 22:00:00 19.8 6 Noroeste 13 Noroeste 0 913.8 -- 70
2020-07-09 21:00:00 21.9 8 Oeste 12 Noroeste 0 913.5 -- 62
2020-07-09 20:00:00 24 5 Oeste 15 Sudoeste 0 913.6 -- 53
2020-07-09 19:00:00 25.4 6 Oeste 17 Oeste 0 913.5 -- 49
2020-07-09 18:00:00 26.2 5 Oeste 18 Noroeste 0 914 -- 49
2020-07-09 17:00:00 26.8 6 Oeste 18 Sudoeste 0 914.3 -- 48
2020-07-09 16:00:00 26.5 8 Noroeste 19 Este 0 914.7 -- 50
2020-07-09 15:00:00 27.7 6 Este 15 Este 0 914.8 -- 43
2020-07-09 14:00:00 27.1 6 Este 21 Este 0 915.1 -- 41
2020-07-09 13:00:00 25.8 6 Este 16 Este 0 915 -- 42
2020-07-09 12:00:00 24.5 5 Este 13 Este 0 915 -- 49
2020-07-09 11:00:00 23.3 4 Nordeste 12 Este 0 914.9 -- 52
2020-07-09 10:00:00 20 3 Este 10 Este 0 914.6 -- 59
2020-07-09 09:00:00 19.1 5 Noroeste 10 Oeste 0 913.9 -- 39
2020-07-09 08:00:00 15.4 7 Oeste 13 Oeste 0 914 -- 51
2020-07-09 07:00:00 14.8 8 Oeste 13 Oeste 0 913.9 -- 46
2020-07-09 06:00:00 15.1 9 Oeste 13 Oeste 0 913.5 -- 46
2020-07-09 05:00:00 15.6 8 Oeste 13 Oeste 0 913.8 -- 41
2020-07-09 04:00:00 16.9 8 Oeste 11 Oeste 0 913.9 -- 38
2020-07-09 03:00:00 20.7 5 Oeste 16 Sudoeste 0 914.2 -- 28
2020-07-09 02:00:00 20.9 8 Oeste 19 Sudoeste 0 914.4 -- 32
2020-07-09 01:00:00 21.3 8 Oeste 20 Oeste 0 914.7 -- 39
2020-07-09 00:00:00 21.1 9 Oeste 21 Oeste 0 914.5 -- 50
2020-07-08 23:00:00 21.8 9 Oeste 17 Oeste 0 914.3 -- 48
2020-07-08 22:00:00 21.5 9 Oeste 20 Oeste 0 913.5 -- 56
2020-07-08 21:00:00 23.2 9 Oeste 21 Oeste 0 913.3 -- 48
2020-07-08 20:00:00 25.5 6 Oeste 19 Oeste 0 913.1 -- 41
2020-07-08 19:00:00 27.3 6 Oeste 23 Oeste 0 913.3 -- 35
2020-07-08 18:00:00 28.3 8 Sudoeste 23 Sudoeste 0 913.7 -- 34
2020-07-08 17:00:00 28.9 8 Oeste 24 Oeste 0 913.8 -- 34
2020-07-08 16:00:00 30.9 8 Oeste 21 Sudoeste 0 914 -- 27
2020-07-08 15:00:00 31.4 6 Oeste 18 Oeste 0 914.1 -- 26
2020-07-08 14:00:00 30.3 8 Noroeste 20 Noroeste 0 914.1 -- 29
2020-07-08 13:00:00 30 4 Norte 14 Noroeste 0 914.2 -- 29
2020-07-08 12:00:00 30.4 5 Este 24 Sur 0 913.8 -- 25
2020-07-08 11:00:00 32 4 Sudeste 30 Sudeste 0 913.5 -- 19
2020-07-08 10:00:00 31.1 4 Sudeste 21 Sudeste 0 913.3 -- 19
2020-07-08 09:00:00 30.5 4 Sur 29 Sur 0 912.9 -- 18
2020-07-08 08:00:00 30.6 6 Sur 24 Sur 0 912.8 -- 18
2020-07-08 07:00:00 30.8 5 Sur 29 Sur 0 912.9 -- 20
2020-07-08 06:00:00 31 7 Sudoeste 24 Sur 0 912.9 -- 21
2020-07-08 05:00:00 30.6 5 Sur 23 Sudoeste 0 913 -- 24
2020-07-08 04:00:00 27.7 0 Calma 14 Sudeste 0 913.3 -- 27
2020-07-08 03:00:00 24.9 6 Oeste 13 Noroeste 0 914 -- 29
2020-07-08 02:00:00 24.3 8 Oeste 13 Oeste 0 914.7 -- 28
2020-07-08 01:00:00 24.6 9 Oeste 15 Noroeste 0 915.1 -- 29
2020-07-08 00:00:00 23.7 9 Oeste 12 Oeste 0 915.4 -- 36
2020-07-07 23:00:00 23.5 8 Oeste 12 Oeste 0 915.4 -- 41
2020-07-07 22:00:00 24.2 8 Oeste 13 Oeste 0 915.1 -- 45
2020-07-07 21:00:00 27 7 Oeste 11 Oeste 0 915.2 -- 45
2020-07-07 20:00:00 30.7 5 Oeste 10 Oeste 0 915.1 -1 37
2020-07-07 19:00:00 32.7 4 Oeste 11 Noroeste 0 915.1 -1.2 29
2020-07-07 18:00:00 33.4 5 Noroeste 14 Noroeste 0 915.4 -0.9 25
2020-07-07 17:00:00 33.7 5 Oeste 20 Sudoeste 0 916.1 -0.2 25
2020-07-07 16:00:00 33.7 8 Oeste 19 Oeste 0 916.3 0.2 26
2020-07-07 15:00:00 33.9 7 Oeste 18 Sudoeste 0 916.3 0.3 25
2020-07-07 14:00:00 33.9 5 Oeste 16 Noroeste 0 916.3 0.7 26
2020-07-07 13:00:00 33.3 6 Oeste 15 Oeste 0 916.1 0.7 26
2020-07-07 12:00:00 33.2 3 Norte 11 Noroeste 0 916 0.8 28
2020-07-07 11:00:00 30.9 2 Nordeste 8 Este 0 915.6 0.6 25
2020-07-07 10:00:00 27 0 Calma 9 Noroeste 0 915.4 0.5 46
2020-07-07 09:00:00 23.3 6 Oeste 10 Noroeste 0 915.2 0.4 56
2020-07-07 08:00:00 20 6 Oeste 11 Oeste 0 915 0 56
2020-07-07 07:00:00 19.4 6 Oeste 10 Oeste 0 914.9 -- 53
2020-07-07 06:00:00 19.7 6 Oeste 10 Oeste 0 914.8 -- 52
2020-07-07 05:00:00 20.1 6 Oeste 11 Noroeste 0 915 -- 52
2020-07-07 04:00:00 20.4 8 Oeste 13 Oeste 0 915.4 -- 50
2020-07-07 03:00:00 21.7 9 Oeste 15 Noroeste 0 915.7 -- 44
2020-07-07 02:00:00 21.7 6 Oeste 12 Noroeste 0 916 -- 49
2020-07-07 01:00:00 22.1 7 Oeste 13 Noroeste 0 916.1 -- 52
2020-07-07 00:00:00 22.2 8 Oeste 14 Noroeste 0 916.2 -- 49
2020-07-06 23:00:00 22.6 6 Oeste 12 Noroeste 0 916.2 -- 51
2020-07-06 22:00:00 25 7 Oeste 18 Oeste 0 915.7 -- 45
2020-07-06 21:00:00 27.1 8 Oeste 15 Oeste 0 915.3 -- 40
2020-07-06 20:00:00 29.4 6 Oeste 15 Sudoeste 0 915.5 -- 36
2020-07-06 19:00:00 31 7 Oeste 18 Sudoeste 0 915.6 -- 32
2020-07-06 18:00:00 31.9 6 Oeste 19 Sudoeste 0 915.9 -- 30
2020-07-06 17:00:00 33.1 5 Oeste 23 Sudoeste 0 916.2 -- 29
2020-07-06 16:00:00 33.2 8 Oeste 19 Sudoeste 0 916.3 -- 30
2020-07-06 15:00:00 34.2 3 Sur 28 Este 0 916.4 -- 24
2020-07-06 14:00:00 33.5 6 Este 17 Este 0 916.6 -- 21
2020-07-06 13:00:00 32.2 4 Este 16 Este 0 916.7 -- 24
2020-07-06 12:00:00 30.6 4 Este 15 Este 0 916.7 -- 26
2020-07-06 11:00:00 28.8 4 Este 12 Este 0 916.5 -- 29
2020-07-06 10:00:00 24.9 4 Este 8 Este 0 916.4 -- 35
2020-07-06 09:00:00 21.6 5 Oeste 10 Oeste 0 916.2 -- 55
2020-07-06 08:00:00 17.3 9 Oeste 12 Noroeste 0 916 -- 60
2020-07-06 07:00:00 16.8 7 Oeste 10 Noroeste 0 916.1 -- 56
2020-07-06 06:00:00 17.3 7 Oeste 12 Oeste 0 916 -- 54
2020-07-06 05:00:00 18.2 7 Oeste 13 Noroeste 0 916.1 -- 49
2020-07-06 04:00:00 18.1 8 Oeste 13 Oeste 0 916.4 -- 51
2020-07-06 03:00:00 18.1 9 Oeste 15 Noroeste 0 916.8 -- 48
2020-07-06 02:00:00 18 9 Oeste 14 Noroeste 0 917.2 -- 47
2020-07-06 01:00:00 18.4 9 Oeste 14 Oeste 0 917.3 -- 45
2020-07-06 00:00:00 19.5 9 Oeste 15 Oeste 0 917.6 -- 45
2020-07-05 23:00:00 20.2 7 Oeste 13 Oeste 0 917.3 -- 41
2020-07-05 22:00:00 20.7 8 Oeste 12 Noroeste 0 916.8 -- 40
2020-07-05 21:00:00 23 6 Oeste 12 Noroeste 0 916.9 -- 39
2020-07-05 20:00:00 27.7 0 Calma 15 Este 0 917 -- 27
2020-07-05 19:00:00 28.9 4 Este 19 Este 0 917 -- 27
2020-07-05 18:00:00 29.7 5 Nordeste 21 Este 0 917.1 -- 25
2020-07-05 17:00:00 30.4 8 Este 29 Este 0 917.3 -- 25
2020-07-05 16:00:00 30.1 8 Nordeste 24 Este 0 917.6 -- 27
2020-07-05 15:00:00 29.8 8 Nordeste 30 Este 0 917.9 -- 30
2020-07-05 14:00:00 29.5 9 Este 30 Este 0 918 -- 30
2020-07-05 13:00:00 29.1 9 Nordeste 28 Norte 0 918.1 -- 30
2020-07-05 12:00:00 27.8 12 Nordeste 36 Este 0 917.8 -- 30
2020-07-05 11:00:00 27.3 14 Este 42 Este 0 917.7 -- 30
2020-07-05 10:00:00 25.7 10 Nordeste 27 Este 0 917.5 -- 34
2020-07-05 09:00:00 24.5 7 Sur 30 Oeste 0 917.3 -- 34
2020-07-05 08:00:00 23.6 11 Sur 31 Sudoeste 0 917 -- 36
2020-07-05 07:00:00 22.1 0 Calma 15 Sur 0 916.7 -- 39
2020-07-05 06:00:00 22.1 3 Este 20 Este 0 916.8 -- 36
2020-07-05 05:00:00 22.8 7 Este 16 Este 0 916.9 -- 32
2020-07-05 04:00:00 23 4 Este 19 Sudeste 0 917.5 -- 32
2020-07-05 03:00:00 23 5 Este 14 Sudeste 0 918.1 -- 30
2020-07-05 02:00:00 23 4 Este 19 Este 0 918.5 -- 31
2020-07-05 01:00:00 22.6 8 Este 18 Este 0 918.7 -- 30
2020-07-05 00:00:00 18.9 7 Oeste 9 Oeste 0 918.5 -- 78
2020-07-04 23:00:00 19.9 6 Oeste 10 Oeste 0 918 -- 73
2020-07-04 22:00:00 20.7 7 Oeste 10 Noroeste 0 917.4 -- 68
2020-07-04 21:00:00 22.8 6 Oeste 11 Oeste 0 917.3 -- 58
2020-07-04 20:00:00 28.1 2 Nordeste 12 Este 0 917.2 -- 37
2020-07-04 19:00:00 29 5 Este 17 Este 0 917.4 -- 36
2020-07-04 18:00:00 29.7 5 Este 17 Este 0 917.6 -- 37
2020-07-04 17:00:00 29.3 7 Noroeste 15 Noroeste 0 918 -- 48
2020-07-04 16:00:00 29.7 4 Oeste 15 Este 0 918.6 -- 44
2020-07-04 15:00:00 29.8 5 Este 18 Este 0 918.7 -- 31
2020-07-04 14:00:00 29.5 5 Este 21 Este 0 919.1 -- 35
2020-07-04 13:00:00 28.3 4 Nordeste 18 Este 0 919.1 -- 39
2020-07-04 12:00:00 27.6 6 Este 18 Este 0 919 -- 41
2020-07-04 11:00:00 25.9 6 Este 14 Este 0 918.6 -- 43
2020-07-04 10:00:00 23.2 3 Este 9 Este 0 918.2 -- 52
2020-07-04 09:00:00 20.7 0 Calma 9 Oeste 0 917.9 -- 64
2020-07-04 08:00:00 16.4 8 Oeste 11 Oeste 0 917.8 -- 68
2020-07-04 07:00:00 15.6 6 Oeste 10 Oeste 0 917.6 -- 64
2020-07-04 06:00:00 15.4 7 Oeste 10 Oeste 0 917.6 -- 66
2020-07-04 05:00:00 16.1 6 Oeste 10 Noroeste 0 917.6 -- 62
2020-07-04 04:00:00 16.6 6 Oeste 11 Oeste 0 917.9 -- 61
2020-07-04 03:00:00 17.4 8 Oeste 12 Oeste 0 918.2 -- 55
2020-07-04 02:00:00 18.3 8 Oeste 13 Noroeste 0 918.2 -- 48
2020-07-04 01:00:00 18 8 Oeste 13 Noroeste 0 918.2 -- 49
2020-07-04 00:00:00 17.3 8 Oeste 14 Noroeste 0 918.1 -- 51
2020-07-03 23:00:00 17.6 8 Oeste 12 Oeste 0 917.8 -- 55
2020-07-03 22:00:00 19.8 6 Oeste 14 Oeste 0 917.3 -- 49
2020-07-03 21:00:00 21.6 8 Oeste 14 Noroeste 0 916.9 -- 43
2020-07-03 20:00:00 24.8 6 Oeste 15 Sudoeste 0 916.9 -- 34
2020-07-03 19:00:00 26.5 6 Oeste 19 Oeste 0 916.9 -- 32
2020-07-03 18:00:00 27.3 7 Oeste 23 Oeste 0 917 -- 28
2020-07-03 17:00:00 27.9 8 Oeste 23 Sudoeste 0 917.2 -- 28
2020-07-03 16:00:00 28.1 8 Oeste 21 Oeste 0 917.2 -- 27
2020-07-03 15:00:00 28.1 7 Oeste 18 Noroeste 0 917.4 -- 30
2020-07-03 14:00:00 28 6 Oeste 19 Oeste 0 917.6 -- 31
2020-07-03 13:00:00 27.1 4 Oeste 15 Sur 0 917.8 -- 35
2020-07-03 12:00:00 26.9 2 Nordeste 9 Oeste 0 917.4 -- 36
2020-07-03 11:00:00 25.3 2 Noroeste 9 Noroeste 0 917.1 -- 40
2020-07-03 10:00:00 22.3 3 Norte 10 Noroeste 0 916.9 -- 44
2020-07-03 09:00:00 21 3 Noroeste 13 Noroeste 0 916.5 -- 51
2020-07-03 08:00:00 18.2 4 Oeste 11 Sudoeste 0 916 -- 56
2020-07-03 07:00:00 19.2 4 Noroeste 10 Noroeste 0 915.9 -- 47
2020-07-03 06:00:00 19.8 4 Oeste 13 Sudoeste 0 915.9 -- 49
2020-07-03 05:00:00 18.5 5 Oeste 10 Oeste 0 916.1 -- 52
2020-07-03 04:00:00 17.7 2 Oeste 7 Oeste 0 916.2 -- 58
2020-07-03 03:00:00 19.4 3 Oeste 16 Noroeste 0 916.7 -- 50
2020-07-03 02:00:00 20.5 8 Noroeste 23 Sudoeste 0 916.9 -- 50
2020-07-03 01:00:00 20.2 7 Oeste 19 Oeste 0 917.1 -- 52
2020-07-03 00:00:00 19.4 8 Oeste 18 Oeste 0 917 -- 53
2020-07-02 23:00:00 20.5 6 Oeste 14 Oeste 0 916.4 -- 46
2020-07-02 22:00:00 20 6 Oeste 14 Oeste 0 916.1 -- 55
2020-07-02 21:00:00 23.1 7 Oeste 15 Noroeste 0 915.9 -- 45
2020-07-02 20:00:00 25 5 Oeste 18 Oeste 0 915.6 -- 42
2020-07-02 19:00:00 26.4 6 Oeste 21 Noroeste 0 915.7 -- 36
2020-07-02 18:00:00 27.1 9 Oeste 23 Noroeste 0 916 -- 35
2020-07-02 17:00:00 27.6 8 Oeste 23 Sudoeste 0 916.1 -- 38
2020-07-02 16:00:00 27.8 8 Oeste 19 Oeste 0 916.5 -- 37
2020-07-02 15:00:00 27.8 8 Oeste 18 Noroeste 0 916.8 -- 36
2020-07-02 14:00:00 28 7 Oeste 18 Noroeste 0 916.9 -- 37
2020-07-02 13:00:00 26.9 5 Oeste 17 Oeste 0 916.7 -- 44
2020-07-02 12:00:00 26.9 4 Oeste 15 Noroeste 0 916.4 -- 38
2020-07-02 11:00:00 25.3 3 Este 17 Noroeste 0 916 -- 47
2020-07-02 10:00:00 23 2 Nordeste 7 Este 0 915.9 -- 50
2020-07-02 09:00:00 21.2 0 Calma 12 Noroeste 0 915.4 -- 57
2020-07-02 08:00:00 17.2 7 Oeste 13 Oeste 0 914.9 -- 65
2020-07-02 07:00:00 16.4 7 Oeste 11 Noroeste 0 914.8 -- 65
2020-07-02 06:00:00 18.6 6 Oeste 15 Oeste 0 914.4 -- 44
2020-07-02 05:00:00 18.1 8 Oeste 15 Oeste 0 914.3 -- 46
2020-07-02 04:00:00 17.9 9 Oeste 14 Noroeste 0 914.2 -- 45
2020-07-02 03:00:00 18.2 8 Oeste 15 Oeste 0 914.8 -- 40
2020-07-02 02:00:00 18.2 9 Oeste 14 Noroeste 0 914.8 -- 40
2020-07-02 01:00:00 18 6 Oeste 13 Oeste 0 914.8 -- 39
2020-07-02 00:00:00 17.8 6 Oeste 11 Noroeste 0 914.8 -- 39
2020-07-01 23:00:00 18.4 6 Oeste 14 Noroeste 0 914.4 -- 38
2020-07-01 22:00:00 19.9 9 Oeste 16 Noroeste 0 914.2 -- 44
2020-07-01 21:00:00 23.8 10 Oeste 18 Noroeste 0 914.3 -- 44
2020-07-01 20:00:00 26.2 6 Oeste 20 Sudoeste 0 914.3 -- 40
2020-07-01 19:00:00 27.9 8 Sudoeste 21 Sudoeste 0 914.5 -- 34
2020-07-01 18:00:00 28.5 8 Sudoeste 22 Sudoeste 0 914.7 -- 32
2020-07-01 17:00:00 29.5 6 Oeste 21 Oeste 0 914.9 -- 29
2020-07-01 16:00:00 29.5 8 Oeste 21 Oeste 0 914.7 -- 35
2020-07-01 15:00:00 29.8 4 Oeste 19 Sur 0 914.8 -- 32
2020-07-01 14:00:00 29.4 3 Noroeste 15 Este 0 915 -- 30
2020-07-01 13:00:00 28.7 2 Noroeste 16 Noroeste 0 915.1 -- 32
2020-07-01 12:00:00 28.3 4 Nordeste 13 Este 0 915 -- 32
2020-07-01 11:00:00 26.8 5 Nordeste 11 Este 0 914.6 -- 36
2020-07-01 10:00:00 23.2 3 Nordeste 11 Norte 0 914.3 -- 42
2020-07-01 09:00:00 21.9 6 Noroeste 13 Noroeste 0 914.1 -- 44
2020-07-01 08:00:00 17.2 9 Oeste 13 Oeste 0 913.7 -- 60
2020-07-01 07:00:00 16.1 8 Oeste 13 Noroeste 0 913.4 -- 58
2020-07-01 06:00:00 16.6 7 Oeste 11 Oeste 0 913.2 -- 56
2020-07-01 05:00:00 18 8 Oeste 13 Noroeste 0 913.1 -- 50
2020-07-01 04:00:00 17.9 9 Oeste 13 Oeste 0 913.2 -- 48
2020-07-01 03:00:00 19.2 8 Oeste 17 Sur 0 913.4 -- 56
2020-07-01 02:00:00 20.8 9 Oeste 19 Oeste 0 913.5 -- 51
2020-07-01 01:00:00 21.2 9 Oeste 16 Oeste 0 913.5 -- 47
2020-07-01 00:00:00 21.4 8 Oeste 18 Sudoeste 0 913.3 -- 56
2020-06-30 23:00:00 20.8 7 Oeste 13 Noroeste 0 912.9 -- 57
2020-06-30 22:00:00 21.2 8 Oeste 16 Oeste 0 912.4 -- 48
2020-06-30 21:00:00 23.9 8 Oeste 19 Oeste 0 912.3 -- 54
2020-06-30 20:00:00 26.2 8 Oeste 21 Oeste 0 912.2 -- 48
2020-06-30 19:00:00 28 8 Oeste 21 Sudoeste 0 912.1 -- 43
2020-06-30 18:00:00 28.6 7 Oeste 17 Sudoeste 0 912.6 -- 40
2020-06-30 17:00:00 29.5 8 Oeste 16 Sudoeste 0 912.7 -- 39
2020-06-30 16:00:00 30 6 Oeste 16 Noroeste 0 913 -- 38
2020-06-30 15:00:00 29.8 5 Norte 14 Oeste 0 913.4 -- 37
2020-06-30 14:00:00 29.2 6 Noroeste 15 Noroeste 0 913.5 -- 36
2020-06-30 13:00:00 29.4 4 Nordeste 18 Este 0 913.5 -- 29
2020-06-30 12:00:00 29 4 Nordeste 15 Nordeste 0 913.2 -- 30
2020-06-30 11:00:00 27.2 4 Nordeste 13 Nordeste 0 912.8 -- 31
2020-06-30 10:00:00 24.4 2 Nordeste 10 Nordeste 0 912.5 -- 38
2020-06-30 09:00:00 21 4 Noroeste 11 Oeste 0 912.2 -- 53
2020-06-30 08:00:00 17.4 6 Oeste 12 Oeste 0 912.2 -- 54
2020-06-30 07:00:00 17 8 Oeste 12 Oeste 0 911.8 -- 52
2020-06-30 06:00:00 18.3 6 Oeste 14 Noroeste 0 911.7 -- 45
2020-06-30 05:00:00 18.2 10 Oeste 14 Oeste 0 911.5 -- 41
2020-06-30 04:00:00 17.8 9 Oeste 14 Noroeste 0 912.2 -- 42
2020-06-30 03:00:00 19.6 8 Oeste 13 Oeste 0 912.7 -- 37
2020-06-30 02:00:00 23.2 0 Calma 21 Sudeste 0 913 -- 26
2020-06-30 01:00:00 17.7 8 Oeste 11 Oeste 0 913.5 -- 69
2020-06-30 00:00:00 19 8 Oeste 11 Oeste 0 913.4 -- 67
2020-06-29 23:00:00 19.6 8 Oeste 11 Oeste 0 913.4 -- 64
2020-06-29 22:00:00 21.3 7 Oeste 11 Noroeste 0 913.1 -- 61
2020-06-29 21:00:00 23.5 8 Noroeste 11 Oeste 0 913.1 -- 58
2020-06-29 20:00:00 27.5 6 Oeste 12 Noroeste 0 913.3 -- 42
2020-06-29 19:00:00 28.9 4 Oeste 12 Sudoeste 0 913.4 -- 37
2020-06-29 18:00:00 30 5 Oeste 15 Oeste 0 913.7 -- 37
2020-06-29 17:00:00 31.1 4 Oeste 19 Noroeste 0 914.3 -- 37
2020-06-29 16:00:00 32.3 0 Calma 12 Oeste 0 914.6 -- 27
2020-06-29 15:00:00 32.4 6 Este 15 Este 0 915.1 -- 22
2020-06-29 14:00:00 31.6 5 Este 17 Este 0 915.4 -- 24
2020-06-29 13:00:00 30.9 4 Este 17 Este 0 915.6 -- 27
2020-06-29 12:00:00 29.4 5 Este 13 Este 0 915.5 -- 31
2020-06-29 11:00:00 27.7 3 Nordeste 11 Este 0 915.4 -- 37
2020-06-29 10:00:00 24.3 2 Nordeste 10 Este 0 915.4 -- 47
2020-06-29 09:00:00 21.3 0 Calma 10 Oeste 0 915.1 -- 67
2020-06-29 08:00:00 17.6 8 Oeste 12 Oeste 0 915.1 -- 79
2020-06-29 07:00:00 16.6 8 Oeste 11 Oeste 0 914.9 -- 81
2020-06-29 06:00:00 17 8 Oeste 10 Oeste 0 914.8 -- 79
2020-06-29 05:00:00 17.2 5 Oeste 9 Oeste 0 915 -- 76
2020-06-29 04:00:00 17.7 6 Oeste 9 Oeste 0 915.4 -- 73
2020-06-29 03:00:00 18 6 Oeste 10 Oeste 0 915.7 -- 70
2020-06-29 02:00:00 18 6 Oeste 10 Noroeste 0 916 -- 68
2020-06-29 01:00:00 17.6 7 Oeste 11 Noroeste 0 916.2 -- 70
2020-06-29 00:00:00 19.2 6 Oeste 11 Oeste 0 916.2 -- 69
2020-06-28 23:00:00 21 8 Oeste 14 Noroeste 0 916 -- 65
2020-06-28 22:00:00 23.1 8 Oeste 17 Sudoeste 0 915.6 -- 59
2020-06-28 21:00:00 24.9 7 Oeste 14 Sudoeste 0 915.4 -- 54
2020-06-28 20:00:00 27.3 4 Oeste 13 Noroeste 0 915.2 -- 45
2020-06-28 19:00:00 28.5 5 Oeste 15 Noroeste 0 915.3 -- 42
2020-06-28 18:00:00 29 6 Oeste 15 Noroeste 0 915.8 -- 42
2020-06-28 17:00:00 30.4 4 Sudoeste 15 Sudoeste 0 916.1 -- 38
2020-06-28 16:00:00 29.7 5 Oeste 18 Sudoeste 0 916.4 -0.4 40
2020-06-28 15:00:00 29.5 5 Oeste 16 Noroeste 0 916.5 -- 40
2020-06-28 14:00:00 29 6 Oeste 19 Oeste 0 916.7 -- 41
2020-06-28 13:00:00 29 5 Noroeste 17 Este 0 916.8 -- 38
2020-06-28 12:00:00 29 3 Este 12 Nordeste 0 916.7 -- 36
2020-06-28 11:00:00 27.3 3 Nordeste 10 Este 0 916.3 -- 39
2020-06-28 10:00:00 23.1 0 Calma 8 Nordeste 0 916.1 -- 49
2020-06-28 09:00:00 20.6 5 Noroeste 10 Noroeste 0 915.9 -- 62
2020-06-28 08:00:00 16.3 6 Oeste 10 Oeste 0 915.6 -- 70
2020-06-28 07:00:00 15.4 8 Oeste 10 Oeste 0 915.4 -- 67
2020-06-28 06:00:00 15.7 6 Oeste 11 Noroeste 0 915.3 -- 64
2020-06-28 05:00:00 16 6 Oeste 10 Oeste 0 915.4 -- 61
2020-06-28 04:00:00 15.9 6 Oeste 10 Oeste 0 915.6 -- 59
2020-06-28 03:00:00 16 6 Oeste 10 Oeste 0 915.8 -- 58
2020-06-28 02:00:00 16 7 Oeste 11 Noroeste 0 916 -- 57
2020-06-28 01:00:00 16.4 7 Oeste 13 Oeste 0 916.3 -- 56
2020-06-28 00:00:00 16.5 7 Oeste 13 Oeste 0 916.3 -- 56
2020-06-27 23:00:00 17.1 8 Oeste 13 Noroeste 0 916.1 -- 62
2020-06-27 22:00:00 19 6 Oeste 11 Noroeste 0 915.4 -- 68
2020-06-27 21:00:00 21.8 5 Oeste 12 Noroeste 0 915.4 -- 57
2020-06-27 20:00:00 23.8 5 Oeste 14 Noroeste 0 915.2 -- 50
2020-06-27 19:00:00 25 5 Oeste 17 Noroeste 0 915.4 -- 44
2020-06-27 18:00:00 25.8 7 Noroeste 18 Noroeste 0 915.8 -- 44
2020-06-27 17:00:00 26.9 6 Oeste 14 Oeste 0 916 -- 42
2020-06-27 16:00:00 26.8 5 Oeste 13 Noroeste 0 916.3 -- 41
2020-06-27 15:00:00 26.6 4 Sudoeste 18 Noroeste 0 916.3 -- 40
2020-06-27 14:00:00 25.3 6 Noroeste 16 Noroeste 0 916.4 -- 39
2020-06-27 13:00:00 25.1 0 Calma 16 Este 0 916.4 -- 37
2020-06-27 12:00:00 24.3 5 Este 18 Este 0 916.3 -- 36
2020-06-27 11:00:00 22.9 6 Este 13 Este 0 915.9 -- 41
2020-06-27 10:00:00 20.3 4 Este 11 Nordeste 0 915.9 -- 49
2020-06-27 09:00:00 17.7 2 Este 10 Oeste 0 915.6 -- 59
2020-06-27 08:00:00 13.7 8 Oeste 12 Oeste 0 915.4 -- 74
2020-06-27 07:00:00 12.3 8 Oeste 12 Oeste 0 915.2 -- 73
2020-06-27 06:00:00 12.6 8 Oeste 12 Oeste 0 914.9 -- 71
2020-06-27 05:00:00 13.2 6 Oeste 11 Oeste 0 914.8 -- 68
2020-06-27 04:00:00 14.9 8 Oeste 12 Oeste 0 914.8 -- 53
2020-06-27 03:00:00 14.3 3 Oeste 12 Oeste 0 915.2 -- 50
2020-06-27 02:00:00 14.7 7 Oeste 12 Oeste 0 915.5 -- 47
2020-06-27 01:00:00 15.4 8 Oeste 11 Oeste 0 915.4 -- 45
2020-06-27 00:00:00 15.4 5 Oeste 13 Oeste 0 915.3 -- 49
2020-06-26 23:00:00 15.1 9 Oeste 14 Noroeste 0 915 -- 59
2020-06-26 22:00:00 17.1 8 Oeste 15 Noroeste 0 914.5 -- 69
2020-06-26 21:00:00 18.7 8 Oeste 17 Sudoeste 0 914.4 -- 68
2020-06-26 20:00:00 20.9 5 Oeste 20 Oeste 0 914.4 -- 58
2020-06-26 19:00:00 22.2 6 Oeste 21 Oeste 0 914.3 -- 58
2020-06-26 18:00:00 23.2 7 Oeste 22 Oeste 0 914.6 -- 55
2020-06-26 17:00:00 24 8 Oeste 21 Sudoeste 0 915 -- 55
2020-06-26 16:00:00 24 8 Oeste 24 Sudoeste 0 915.1 -- 59
2020-06-26 15:00:00 23.7 8 Oeste 18 Oeste 0 915.1 -- 62
2020-06-26 14:00:00 23.4 4 Nordeste 16 Nordeste 0 915.2 -- 61
2020-06-26 13:00:00 21.9 6 Norte 18 Noroeste 0 915.1 -- 66
2020-06-26 12:00:00 21.5 4 Norte 14 Noroeste 0 914.8 -- 68
2020-06-26 11:00:00 20.2 3 Este 11 Este 0 914.5 -- 74
2020-06-26 10:00:00 16.6 4 Este 8 Este 0 914.2 -- 85
2020-06-26 09:00:00 14.2 0 Calma 6 Noroeste 0 914.1 -- 91
2020-06-26 08:00:00 13.4 2 Noroeste 9 Noroeste 0 913.7 -- 82
2020-06-26 07:00:00 13.1 5 Oeste 9 Noroeste 0 913.5 -- 85
2020-06-26 06:00:00 14.4 2 Noroeste 9 Oeste 0 913.7 -- 82
2020-06-26 05:00:00 16.1 4 Oeste 10 Noroeste 0 913.6 -- 77
2020-06-26 04:00:00 17.6 6 Oeste 12 Sudoeste 0 913.5 -- 72
2020-06-26 03:00:00 15.9 4 Oeste 9 Oeste 0 913.9 -- 74
2020-06-26 02:00:00 16.1 4 Oeste 9 Oeste 0 914.2 -- 77
2020-06-26 01:00:00 15.6 6 Oeste 12 Oeste 0 914.5 -- 78
2020-06-26 00:00:00 16.2 8 Oeste 11 Oeste 0 914.5 -- 82
2020-06-25 23:00:00 17.2 5 Oeste 8 Noroeste 0 914.4 -- 85
2020-06-25 22:00:00 18.8 4 Noroeste 9 Noroeste 0 913.9 -- 83
2020-06-25 21:00:00 20.5 4 Oeste 24 Oeste 0 913.4 -- 77
2020-06-25 20:00:00 22.8 8 Oeste 20 Oeste 0 913.3 -- 67
2020-06-25 19:00:00 24.1 7 Oeste 20 Oeste 0 913.4 -- 48
2020-06-25 18:00:00 25.5 7 Oeste 22 Oeste 0 913.7 -- 47
2020-06-25 17:00:00 25.9 7 Oeste 22 Oeste 0 914 -- 45
2020-06-25 16:00:00 26.6 6 Oeste 20 Oeste 0 914.2 -- 44
2020-06-25 15:00:00 26.1 6 Oeste 19 Oeste 0 914.5 -- 45
2020-06-25 14:00:00 25.4 8 Oeste 18 Noroeste 0 914.8 -- 47
2020-06-25 13:00:00 25 7 Oeste 21 Noroeste 0 914.8 -- 46
2020-06-25 12:00:00 26 7 Nordeste 23 Este 0 914.6 -- 30
2020-06-25 11:00:00 24.9 5 Nordeste 20 Este 0 914.3 -- 32
2020-06-25 10:00:00 22.8 3 Nordeste 9 Este 0 913.8 -- 36
2020-06-25 09:00:00 20.5 2 Nordeste 7 Oeste 0 913.5 -- 35
2020-06-25 08:00:00 19.5 3 Oeste 13 Nordeste 0 913.4 -- 40
2020-06-25 07:00:00 21.5 5 Este 13 Nordeste 0 913.5 -- 26
2020-06-25 06:00:00 21.7 3 Nordeste 19 Norte 0 913.2 -- 24
2020-06-25 05:00:00 19.3 0 Calma 15 Este 0 913.4 -- 35
2020-06-25 04:00:00 20.3 0 Calma 27 Este 0 913.8 -- 35
2020-06-25 03:00:00 22.7 5 Este 27 Este 0 914.3 -- 25
2020-06-25 02:00:00 23.5 8 Este 40 Nordeste 0 914.3 -- 24
2020-06-25 01:00:00 22.9 11 Este 28 Este 0 914.4 -- 24
2020-06-25 00:00:00 22.9 7 Nordeste 23 Este 0 914.6 -- 28
2020-06-24 23:00:00 23.5 10 Sudeste 24 Sudeste 0 914.5 -- 28
2020-06-24 22:00:00 23.3 6 Este 19 Sudeste 0 913.6 -- 31
2020-06-24 21:00:00 24.2 2 Este 10 Este 0 913.5 -- 58
2020-06-24 20:00:00 26.9 3 Nordeste 17 Nordeste 0 913.3 -- 47
2020-06-24 19:00:00 28.7 9 Este 19 Este 0 913.3 -- 25
2020-06-24 18:00:00 29.1 4 Este 15 Este 0 914.1 -- 25
2020-06-24 17:00:00 29.4 6 Este 19 Este 0 914.6 -- 27
2020-06-24 16:00:00 29.1 4 Nordeste 31 Este 0 914.8 -- 24
2020-06-24 15:00:00 29.3 9 Este 30 Este 0 914.8 -- 27
2020-06-24 14:00:00 28.8 9 Nordeste 27 Este 0 914.8 -- 28
2020-06-24 13:00:00 28.4 7 Nordeste 20 Este 0 914.4 -- 29
2020-06-24 12:00:00 27.9 9 Este 21 Este 0 914.3 -- 28
2020-06-24 11:00:00 26.7 6 Este 18 Nordeste 0 914.3 -- 27
2020-06-24 10:00:00 24.7 6 Este 15 Este 0 914.1 -- 31
2020-06-24 09:00:00 22.7 2 Este 16 Norte 0 913.9 -- 37
2020-06-24 08:00:00 22 4 Nordeste 17 Este 0 913.7 -- 33
2020-06-24 07:00:00 22 4 Sudeste 20 Sur 0 913.7 -- 31
2020-06-24 06:00:00 21.7 6 Este 18 Este 0 913.6 -- 34
2020-06-24 05:00:00 20.8 3 Este 12 Norte 0 913.8 -- 45
2020-06-24 04:00:00 22.5 4 Nordeste 18 Este 0 914 -- 38
2020-06-24 03:00:00 22.5 5 Este 19 Este 0 914.1 -- 37
2020-06-24 02:00:00 22.7 5 Este 19 Este 0 914.5 -- 38
2020-06-24 01:00:00 23 4 Norte 30 Este 0 914.5 -- 37
2020-06-24 00:00:00 24.1 13 Este 36 Este 0 914.4 -- 32
2020-06-23 23:00:00 24.5 8 Este 32 Este 0 914.3 -- 30
2020-06-23 22:00:00 24.7 10 Este 27 Este 0 913.7 -- 29
2020-06-23 21:00:00 25.8 11 Este 23 Este 0 913.2 -- 29
2020-06-23 20:00:00 26.9 4 Este 20 Este 0 913 -- 34
2020-06-23 19:00:00 27.3 4 Nordeste 21 Este 0 912.9 -- 33
2020-06-23 18:00:00 27.9 8 Este 24 Este 0 913.6 -- 32
2020-06-23 17:00:00 28.5 6 Nordeste 29 Este 0 913.7 -- 32
2020-06-23 16:00:00 29 11 Este 27 Este 0 914 -- 32
2020-06-23 15:00:00 29 6 Nordeste 30 Nordeste 0 914.1 -- 31
2020-06-23 14:00:00 28.8 8 Este 26 Este 0 914.3 -- 31
2020-06-23 13:00:00 28.6 11 Este 37 Este 0 914.3 -- 29
2020-06-23 12:00:00 27.6 12 Nordeste 41 Este 0 914 -- 29
2020-06-23 11:00:00 26.9 15 Nordeste 42 Este 0 913.6 -- 28
2020-06-23 10:00:00 25.6 19 Este 50 Nordeste 0 913.7 -- 29
2020-06-23 09:00:00 25.1 22 Este 50 Este 0 913.6 -- 29
2020-06-23 08:00:00 24.7 19 Nordeste 55 Este 0 913.5 -- 28
2020-06-23 07:00:00 24.9 22 Nordeste 54 Este 0 913.5 -- 28
2020-06-23 06:00:00 24.8 22 Este 48 Este 0 913.3 -- 28
2020-06-23 05:00:00 24.6 9 Este 34 Este 0 913.9 -- 29
2020-06-23 04:00:00 24.6 10 Este 42 Nordeste 0 914.5 -- 28
2020-06-23 03:00:00 24.6 10 Este 39 Este 0 915 -- 28
2020-06-23 02:00:00 25.2 13 Este 40 Este 0 915.3 -- 27
2020-06-23 01:00:00 25.3 13 Este 37 Este 0 915.5 -- 27
2020-06-23 00:00:00 25.2 13 Este 31 Este 0 915.7 -- 26
2020-06-22 23:00:00 25.3 12 Este 30 Este 0 915.5 -- 25
2020-06-22 22:00:00 26.1 8 Este 31 Este 0 915.2 -- 23
2020-06-22 21:00:00 26.3 8 Este 22 Este 0 915 -- 24
2020-06-22 20:00:00 27.3 8 Este 22 Este 0 915.1 -- 24
2020-06-22 19:00:00 28.1 7 Nordeste 30 Este 0 915.4 -- 24
2020-06-22 18:00:00 28.6 11 Este 29 Este 0 916 -- 23
2020-06-22 17:00:00 29.3 11 Este 27 Este 0 916.7 -- 22
2020-06-22 16:00:00 29.3 8 Nordeste 32 Este 0 917.2 -- 24
2020-06-22 15:00:00 29.3 11 Este 27 Este 0 917.8 -- 26
2020-06-22 14:00:00 29.5 6 Este 30 Este 0 918.2 -- 25
2020-06-22 13:00:00 29.8 8 Este 27 Este 0 918.1 -- 24
2020-06-22 12:00:00 29.5 5 Sudeste 23 Sur 0 918.1 -- 24
2020-06-22 11:00:00 28.2 5 Sudeste 30 Este 0 917.7 -- 24
2020-06-22 10:00:00 26.2 9 Este 23 Este 0 917.6 -- 25
2020-06-22 09:00:00 23.4 2 Sudeste 15 Sur 0 917.6 -- 37
2020-06-22 08:00:00 18.9 0 Calma 9 Noroeste 0 917.7 -- 51
2020-06-22 07:00:00 16.2 6 Oeste 13 Oeste 0 917.5 -- 59
2020-06-22 06:00:00 15.4 9 Oeste 12 Oeste 0 917.6 -- 62
2020-06-22 05:00:00 15.8 8 Oeste 12 Oeste 0 918 -- 61
2020-06-22 04:00:00 16.5 9 Oeste 14 Oeste 0 918.3 -- 60
2020-06-22 03:00:00 17 8 Oeste 12 Oeste 0 918.7 -- 55
2020-06-22 02:00:00 17.2 9 Oeste 12 Oeste 0 919.2 -- 55
2020-06-22 01:00:00 17.5 8 Oeste 13 Oeste 0 919.4 -- 55
2020-06-22 00:00:00 17.5 7 Oeste 13 Noroeste 0 919.5 -- 56
2020-06-21 23:00:00 19.9 10 Noroeste 14 Oeste 0 919.5 -- 51
2020-06-21 22:00:00 21.2 8 Oeste 13 Oeste 0 919.1 -- 51
2020-06-21 21:00:00 22.7 7 Oeste 13 Oeste 0 919 -- 49
2020-06-21 20:00:00 27.2 5 Oeste 13 Noroeste 0 919 -- 33
2020-06-21 19:00:00 28.8 5 Oeste 16 Sudoeste 0 919.1 -- 28
2020-06-21 18:00:00 29.6 4 Oeste 14 Noroeste 0 919.6 -- 29
2020-06-21 17:00:00 31.2 3 Este 14 Este 0 920.1 -- 25
2020-06-21 16:00:00 30.9 3 Este 17 Este 0 920.3 -- 23
2020-06-21 15:00:00 30.5 5 Este 15 Este 0 920.8 -- 24
2020-06-21 14:00:00 29.7 0 Calma 15 Este 0 921.2 -- 32
2020-06-21 13:00:00 29.1 5 Este 19 Este 0 921.2 -- 27
2020-06-21 12:00:00 28.1 5 Nordeste 13 Este 0 921 -- 29
2020-06-21 11:00:00 27.1 3 Este 11 Nordeste 0 921 -- 31
2020-06-21 10:00:00 23.3 2 Nordeste 8 Oeste 0 920.5 -- 45
2020-06-21 09:00:00 20.1 6 Noroeste 12 Noroeste 0 920.4 -- 60
2020-06-21 08:00:00 16.3 7 Oeste 11 Noroeste 0 920.1 -- 65
2020-06-21 07:00:00 14.8 6 Oeste 10 Noroeste 0 919.9 -- 67
2020-06-21 06:00:00 14.6 5 Oeste 12 Oeste 0 919.9 -- 67
2020-06-21 05:00:00 15.3 6 Oeste 11 Oeste 0 920 -- 65
2020-06-21 04:00:00 15.8 5 Oeste 10 Oeste 0 920 -- 61
2020-06-21 03:00:00 16.7 6 Oeste 13 Oeste 0 920.4 -- 62
2020-06-21 02:00:00 17.9 6 Oeste 13 Oeste 0 920.5 -- 56
2020-06-21 01:00:00 16.9 8 Oeste 13 Oeste 0 920.7 -- 62
2020-06-21 00:00:00 17.1 6 Oeste 11 Noroeste 0 920.7 -- 62
2020-06-20 23:00:00 18.8 7 Oeste 14 Oeste 0 920.4 -- 62
2020-06-20 22:00:00 20.5 8 Oeste 14 Oeste 0 919.8 -- 58
2020-06-20 21:00:00 22.3 6 Oeste 17 Sudoeste 0 919.4 -- 52
2020-06-20 20:00:00 25 5 Oeste 18 Sudoeste 0 919.4 -- 44
2020-06-20 19:00:00 26.2 5 Oeste 17 Sudoeste 0 919.2 -- 39
2020-06-20 18:00:00 26.9 5 Sudoeste 18 Noroeste 0 919.4 -- 40
2020-06-20 17:00:00 27.4 5 Oeste 16 Noroeste 0 919.7 -- 41
2020-06-20 16:00:00 27.8 5 Oeste 17 Oeste 0 919.9 -- 41
2020-06-20 15:00:00 27.1 5 Oeste 14 Sudoeste 0 919.8 -- 41
2020-06-20 14:00:00 27.1 5 Noroeste 16 Este 0 919.9 -- 40
2020-06-20 13:00:00 26.6 5 Nordeste 16 Este 0 919.9 -- 30
2020-06-20 12:00:00 25.5 5 Nordeste 17 Este 0 919.7 -- 30
2020-06-20 11:00:00 24.4 4 Nordeste 12 Este 0 919.1 -- 36
2020-06-20 10:00:00 20.7 3 Nordeste 7 Este 0 919.1 -- 50
2020-06-20 09:00:00 17.9 4 Noroeste 10 Oeste 0 918.6 -- 65
2020-06-20 08:00:00 14.1 6 Oeste 13 Oeste 0 918.2 -- 76
2020-06-20 07:00:00 12.6 7 Oeste 12 Oeste 0 918.1 -- 73
2020-06-20 06:00:00 12.3 7 Oeste 11 Oeste 0 918 -- 68
2020-06-20 05:00:00 12.9 6 Oeste 11 Oeste 0 918 -- 72
2020-06-20 04:00:00 13 5 Oeste 9 Oeste 0 918.1 -- 82
2020-06-20 03:00:00 14 6 Oeste 10 Oeste 0 918.1 -- 87
2020-06-20 02:00:00 14.5 8 Oeste 11 Oeste 0 918.7 -- 88
2020-06-20 01:00:00 14.6 6 Oeste 11 Oeste 0 919.1 -- 88
2020-06-20 00:00:00 14.6 6 Oeste 10 Oeste 0 919.1 -- 89
2020-06-19 23:00:00 15.1 6 Oeste 9 Noroeste 0 918.5 -- 85
2020-06-19 22:00:00 17.1 6 Oeste 12 Noroeste 0 917.7 -- 78
2020-06-19 21:00:00 18.2 7 Oeste 14 Oeste 0 917.3 -- 72
2020-06-19 20:00:00 20.4 5 Oeste 18 Oeste 0 917.1 -- 66
2020-06-19 19:00:00 21.3 5 Oeste 20 Sudoeste 0 917 -- 63
2020-06-19 18:00:00 22.4 7 Sudoeste 20 Sudoeste 0 917 -- 60
2020-06-19 17:00:00 23.5 5 Oeste 17 Noroeste 0 917 -- 56
2020-06-19 16:00:00 23 6 Oeste 18 Sudoeste 0 917 -- 57
2020-06-19 15:00:00 22.6 6 Oeste 17 Oeste 0 917.1 -- 59
2020-06-19 14:00:00 23.2 3 Oeste 24 Nordeste 0 917.2 -- 58
2020-06-19 13:00:00 22.6 7 Este 17 Este 0 917.1 -- 51
2020-06-19 12:00:00 21.3 6 Este 17 Este 0 916.8 -- 50
2020-06-19 11:00:00 20 5 Este 12 Este 0 916.2 -- 52
2020-06-19 10:00:00 17.4 4 Nordeste 9 Norte 0 916 -- 60
2020-06-19 09:00:00 16.5 4 Nordeste 10 Oeste 0 915.5 -- 62
2020-06-19 08:00:00 14 8 Noroeste 12 Noroeste 0 915.2 -- 71
2020-06-19 07:00:00 12.4 7 Oeste 14 Oeste 0 914.8 -- 72
2020-06-19 06:00:00 13.8 8 Oeste 14 Oeste 0 914.4 -- 64
2020-06-19 05:00:00 14.3 8 Oeste 18 Noroeste 0 914.2 -- 61
2020-06-19 04:00:00 13.8 10 Oeste 18 Noroeste 0 914.2 -- 47
2020-06-19 03:00:00 14.3 11 Oeste 19 Noroeste 0 914.3 -- 48
2020-06-19 02:00:00 14.3 11 Oeste 16 Oeste 0 914.3 -- 50
2020-06-19 01:00:00 14 8 Oeste 16 Oeste 0 914.4 -- 54
2020-06-19 00:00:00 14.6 9 Oeste 15 Oeste 0 914.3 -- 50
2020-06-18 23:00:00 15.2 10 Oeste 15 Oeste 0 914 -- 50
2020-06-18 22:00:00 15.6 7 Oeste 16 Noroeste 0 913.4 -- 57
2020-06-18 21:00:00 16.9 9 Oeste 20 Sudoeste 0 912.9 -- 52
2020-06-18 20:00:00 18.9 8 Oeste 25 Sudoeste 0 912.5 -- 45
2020-06-18 19:00:00 20.5 9 Oeste 27 Sudoeste 0 912.2 -- 44
2020-06-18 18:00:00 22.1 7 Sudoeste 23 Sudoeste 0 912.4 -- 46
2020-06-18 17:00:00 23 7 Oeste 22 Oeste 0 912.7 -- 45
2020-06-18 16:00:00 23.3 8 Oeste 24 Sudoeste 0 912.7 -- 44
2020-06-18 15:00:00 23.3 7 Oeste 20 Sudoeste 0 912.5 -- 47
2020-06-18 14:00:00 22.6 6 Oeste 21 Sudoeste 0 912.7 -- 48
2020-06-18 13:00:00 22.5 6 Oeste 20 Sur 0 912.8 -- 49
2020-06-18 12:00:00 22.1 5 Oeste 19 Oeste 0 912.5 -- 49
2020-06-18 11:00:00 21.9 5 Este 13 Este 0 911.9 -- 44
2020-06-18 10:00:00 18.6 3 Este 7 Este 0 911.8 -- 50
2020-06-18 09:00:00 15.8 3 Noroeste 9 Noroeste 0 911.7 -- 66
2020-06-18 08:00:00 12.3 6 Oeste 12 Oeste 0 911.6 -- 78
2020-06-18 07:00:00 11.2 7 Oeste 10 Oeste 0 911.5 -- 78
2020-06-18 06:00:00 11.3 6 Oeste 11 Oeste 0 911.1 -- 78
2020-06-18 05:00:00 11.2 6 Oeste 10 Oeste 0 911.2 -- 78
2020-06-18 04:00:00 11.9 6 Oeste 10 Oeste 0 911.6 -- 76
2020-06-18 03:00:00 13.7 5 Oeste 9 Noroeste 0 912.3 -- 68
2020-06-18 02:00:00 15.2 0 Calma 10 Sudoeste 0 912.7 -- 65
2020-06-18 01:00:00 15.9 5 Sudoeste 16 Sudoeste 0 913.4 -- 62
2020-06-18 00:00:00 14.5 6 Oeste 12 Oeste 0 913.6 -- 76
2020-06-17 23:00:00 14.3 7 Oeste 12 Noroeste 0 913.5 -- 76
2020-06-17 22:00:00 15.7 5 Oeste 12 Oeste 0 913.2 -- 72
2020-06-17 21:00:00 17.2 4 Oeste 14 Sudoeste 0 913.1 -- 61
2020-06-17 20:00:00 20.1 5 Oeste 15 Oeste 0 912.8 -- 53
2020-06-17 19:00:00 21.1 6 Oeste 18 Oeste 0 912.9 -- 49
2020-06-17 18:00:00 21.7 8 Noroeste 20 Sudoeste 0 913.4 -- 48
2020-06-17 17:00:00 23 5 Oeste 20 Oeste 0 914 -- 44
2020-06-17 16:00:00 22.7 7 Oeste 21 Noroeste 0 914.4 -- 48
2020-06-17 15:00:00 22 6 Oeste 17 Noroeste 0 914.6 -- 54
2020-06-17 14:00:00 22.3 5 Oeste 17 Noroeste 0 915.1 -- 53
2020-06-17 13:00:00 21 7 Oeste 21 Noroeste 0 915.6 -- 56
2020-06-17 12:00:00 20.6 5 Sudoeste 17 Sudoeste 0 915.5 -- 58
2020-06-17 11:00:00 19.5 3 Oeste 9 Noroeste 0 915.6 -- 66
2020-06-17 10:00:00 17.3 3 Nordeste 10 Este 0 915.7 -- 70
2020-06-17 09:00:00 15.6 3 Nordeste 7 Este 0 915.3 -- 77
2020-06-17 08:00:00 12.7 5 Oeste 10 Oeste 0 915.3 -- 91
2020-06-17 07:00:00 12 7 Noroeste 11 Noroeste 0 915.3 -- 89
2020-06-17 06:00:00 13.2 5 Oeste 10 Oeste 0 915.3 -- 85
2020-06-17 05:00:00 14.3 4 Oeste 11 Noroeste 0 915.6 -- 82
2020-06-17 04:00:00 14.6 4 Oeste 12 Oeste 0 915.9 -- 84
2020-06-17 03:00:00 15 5 Oeste 16 Sudoeste 0 916.5 -- 82
2020-06-17 02:00:00 15.3 5 Oeste 14 Noroeste 0 916.9 -- 80
2020-06-17 01:00:00 16 6 Oeste 19 Sudoeste 0 917.4 -- 76
2020-06-17 00:00:00 15.2 6 Oeste 19 Sudoeste 0 918 -- 81
2020-06-16 23:00:00 15.2 9 Oeste 21 Oeste 0 917.7 -- 84
2020-06-16 22:00:00 16.2 6 Oeste 24 Oeste 0 917.5 -- 86
2020-06-16 21:00:00 16.8 6 Oeste 24 Sudoeste 0 917.6 -- 83
2020-06-16 20:00:00 17.4 7 Oeste 26 Oeste 0 917.6 -- 76
2020-06-16 19:00:00 19 6 Oeste 21 Sudoeste 0 917.7 -- 64
2020-06-16 18:00:00 19.3 8 Oeste 24 Noroeste 0 918.1 -- 63
2020-06-16 17:00:00 20.6 9 Oeste 27 Sudoeste 0 918.5 -- 53
2020-06-16 16:00:00 20.8 10 Oeste 24 Sudoeste 0 918.5 -- 53
2020-06-16 15:00:00 20.4 10 Oeste 31 Sudoeste 0 918.6 -- 41
2020-06-16 14:00:00 19.9 10 Oeste 26 Oeste 0 918.8 -- 49
2020-06-16 13:00:00 19.3 8 Oeste 21 Sudoeste 0 918.6 -- 57
2020-06-16 12:00:00 17.3 8 Oeste 26 Sudoeste 0 918.4 -- 60
2020-06-16 11:00:00 19.5 7 Noroeste 25 Oeste 0 918.2 -- 44
2020-06-16 10:00:00 17.2 5 Oeste 26 Noroeste 0 918.5 -- 56
2020-06-16 09:00:00 15.3 5 Noroeste 18 Noroeste 0 918.2 -- 64
2020-06-16 08:00:00 13.1 0 Calma 12 Noroeste 0 918.1 -- 74
2020-06-16 07:00:00 14.4 6 Noroeste 13 Noroeste 0 918.1 -- 68
2020-06-16 06:00:00 14.8 6 Noroeste 17 Noroeste 0 917.9 -- 65
2020-06-16 05:00:00 14.6 2 Este 13 Sudoeste 0 917.5 -- 67
2020-06-16 04:00:00 14.9 7 Oeste 17 Sudoeste 0 917.9 -- 61
2020-06-16 03:00:00 14.6 10 Oeste 20 Sudoeste 0 918.1 -- 61
2020-06-16 02:00:00 16.4 3 Sur 17 Sur 0 918.3 -- 53
2020-06-16 01:00:00 13.9 2 Oeste 11 Oeste 0 918.4 -- 56
2020-06-16 00:00:00 12.3 6 Oeste 14 Oeste 0 918.8 -- 60
2020-06-15 23:00:00 13 7 Oeste 15 Noroeste 0 919.2 -- 66
2020-06-15 22:00:00 15.1 8 Oeste 18 Oeste 0 919.1 -- 63
2020-06-15 21:00:00 17.1 9 Oeste 22 Oeste 0 919.1 -- 61
2020-06-15 20:00:00 19.5 8 Oeste 18 Noroeste 0 918.8 -- 58
2020-06-15 19:00:00 20.9 7 Oeste 15 Oeste 0 918.7 -- 55
2020-06-15 18:00:00 21.7 6 Oeste 16 Oeste 0 919.1 -- 49
2020-06-15 17:00:00 22.4 5 Sudoeste 21 Sudoeste 0 919.6 -- 45
2020-06-15 16:00:00 22.6 5 Oeste 19 Oeste 0 919.9 -- 48
2020-06-15 15:00:00 21.9 7 Oeste 21 Sudoeste 0 920.1 -- 51
2020-06-15 14:00:00 21.2 6 Oeste 19 Sudoeste 0 920.3 -- 55
2020-06-15 13:00:00 19.9 9 Oeste 19 Noroeste 0 920.4 -- 61
2020-06-15 12:00:00 20.1 6 Noroeste 14 Este 0 920 -- 60
2020-06-15 11:00:00 18.5 4 Este 13 Este 0 919.7 -- 56
2020-06-15 10:00:00 15.9 4 Este 9 Este 0 919.6 -- 66
2020-06-15 09:00:00 14.7 2 Nordeste 8 Norte 0 919.2 -- 66
2020-06-15 08:00:00 13.6 0 Calma 13 Sur 0 918.8 -- 71
2020-06-15 07:00:00 13.2 5 Sudoeste 14 Oeste 0 918.8 -- 68
2020-06-15 06:00:00 11.5 5 Oeste 14 Noroeste 0 918.7 -- 78
2020-06-15 05:00:00 12.4 8 Oeste 17 Noroeste 0 918.8 -- 73
2020-06-15 04:00:00 12.4 10 Oeste 21 Oeste 0 919 -- 73
2020-06-15 03:00:00 12.3 10 Oeste 19 Oeste 0 919.2 -- 70
2020-06-15 02:00:00 12.8 5 Oeste 9 Oeste 0 919.4 -- 68
2020-06-15 01:00:00 11.3 3 Oeste 8 Noroeste 0 919.7 -- 80
2020-06-15 00:00:00 11.9 5 Oeste 12 Oeste 0 919.4 -- 74